createdAt,value
2018-11-12T19:35:45.839Z,8.51
2018-11-12T19:38:14.147Z,8.41
2018-11-12T19:40:42.375Z,8.29
2018-11-12T19:43:10.541Z,8.23
2018-11-12T19:45:38.738Z,8.13
2018-11-12T19:48:06.957Z,8.14
2018-11-12T19:50:35.229Z,8.11
2018-11-12T19:53:03.397Z,8.04
2018-11-12T19:55:31.553Z,8.04
2018-11-12T19:57:59.741Z,8.01
2018-11-12T20:00:34.501Z,7.98
2018-11-12T20:03:03.405Z,7.99
2018-11-12T20:05:31.585Z,7.98
2018-11-12T20:07:59.784Z,8.04
2018-11-12T20:10:28.003Z,8.15
2018-11-12T20:12:56.153Z,8.07
2018-11-12T20:15:25.328Z,8.10
2018-11-12T20:17:54.030Z,8.09
2018-11-12T20:20:23.608Z,8.06
2018-11-12T20:22:52.023Z,8.07
2018-11-12T20:25:20.673Z,8.07
2018-11-12T20:27:49.452Z,8.05
2018-11-12T20:30:21.653Z,8.04
2018-11-12T20:32:49.869Z,7.96
2018-11-12T20:35:18.136Z,7.92
2018-11-12T20:37:46.329Z,7.88
2018-11-12T20:40:15.342Z,7.84
2018-11-12T20:42:44.638Z,7.76
2018-11-12T20:45:14.092Z,7.74
2018-11-12T20:47:42.923Z,7.75
2018-11-12T20:50:12.430Z,7.73
2018-11-12T20:52:40.954Z,7.69
2018-11-12T20:55:10.109Z,7.75
2018-11-12T20:57:38.834Z,7.73
2018-11-12T21:00:10.887Z,7.81
2018-11-12T21:02:39.756Z,7.81
2018-11-12T21:05:08.440Z,7.84
2018-11-12T21:07:36.655Z,7.80
2018-11-12T21:10:05.133Z,7.80
2018-11-12T21:12:33.297Z,7.71
2018-11-12T21:15:01.472Z,7.68
2018-11-12T21:17:29.636Z,7.56
2018-11-12T21:19:57.860Z,7.62
2018-11-12T21:22:26.053Z,7.55
2018-11-12T21:24:54.232Z,7.53
2018-11-12T21:27:22.376Z,7.55
2018-11-12T21:29:50.763Z,7.50
2018-11-12T21:32:18.943Z,7.47
2018-11-12T21:34:47.116Z,7.41
2018-11-12T21:37:15.381Z,7.45
2018-11-12T21:39:43.481Z,7.48
2018-11-12T21:42:11.628Z,7.50
2018-11-12T21:44:39.885Z,7.44
2018-11-12T21:47:08.233Z,7.43
2018-11-12T21:49:36.584Z,7.34
2018-11-12T21:52:05.226Z,7.48
2018-11-12T21:54:33.468Z,7.42
2018-11-12T21:57:01.777Z,7.43
2018-11-12T21:59:30.207Z,7.48
2018-11-12T22:01:58.485Z,7.51
2018-11-12T22:04:26.843Z,7.45
2018-11-12T22:06:55.255Z,7.37
2018-11-12T22:09:23.503Z,7.38
2018-11-12T22:11:51.729Z,7.39
2018-11-12T22:14:20.242Z,7.43
2018-11-12T22:16:48.436Z,7.41
2018-11-12T22:19:16.717Z,7.34
2018-11-12T22:21:44.972Z,7.46
2018-11-12T22:24:13.174Z,7.44
2018-11-12T22:26:41.473Z,7.41
2018-11-12T22:29:09.883Z,7.35
2018-11-12T22:31:38.334Z,7.39
2018-11-12T22:34:06.548Z,7.40
2018-11-12T22:36:34.876Z,7.33
2018-11-12T22:39:03.066Z,7.28
2018-11-12T22:41:31.364Z,7.40
2018-11-12T22:43:59.614Z,7.38
2018-11-12T22:46:28.132Z,7.32
2018-11-12T22:48:56.869Z,7.33
2018-11-12T22:51:25.560Z,7.34
2018-11-12T22:53:54.308Z,7.32
2018-11-12T22:56:23.152Z,7.38
2018-11-12T22:58:51.329Z,7.31
2018-11-12T23:01:19.496Z,7.26
2018-11-12T23:03:47.669Z,7.26
2018-11-12T23:06:15.945Z,7.29
2018-11-12T23:08:44.142Z,7.23
2018-11-12T23:11:12.688Z,7.21
2018-11-12T23:13:40.881Z,7.26
2018-11-12T23:16:09.249Z,7.20
2018-11-12T23:18:37.405Z,7.25
2018-11-12T23:21:05.769Z,7.24
2018-11-12T23:23:33.933Z,7.24
2018-11-12T23:26:02.148Z,7.28
2018-11-12T23:28:30.353Z,7.30
2018-11-12T23:30:58.569Z,7.32
2018-11-12T23:33:26.781Z,7.16
2018-11-12T23:35:55.041Z,7.15
2018-11-12T23:38:23.205Z,7.23
2018-11-12T23:40:51.373Z,7.18
2018-11-12T23:43:19.572Z,7.20
2018-11-12T23:45:47.848Z,7.18
2018-11-12T23:51:36.302Z,7.27
2018-11-12T23:54:04.760Z,7.30
2018-11-12T23:56:32.964Z,7.28
2018-11-12T23:59:01.124Z,7.28
